createdAt,value
2018-02-13T00:01:49.891Z,52.25
2018-02-13T00:04:17.653Z,34.70
2018-02-13T00:06:45.417Z,47.38
2018-02-13T00:09:13.227Z,37.58
2018-02-13T00:11:40.983Z,33.50
2018-02-13T00:14:08.743Z,34.33
2018-02-13T00:16:36.556Z,30.50
2018-02-13T00:19:04.315Z,29.23
2018-02-13T00:21:32.071Z,38.50
2018-02-13T00:23:59.883Z,39.30
2018-02-13T00:26:28.416Z,34.10
2018-02-13T00:28:56.176Z,33.42
2018-02-13T00:31:23.992Z,34.60
2018-02-13T00:33:52.515Z,36.15
2018-02-13T00:36:20.274Z,32.95
2018-02-13T00:38:48.103Z,35.80
2018-02-13T00:41:15.859Z,37.15
2018-02-13T00:43:44.383Z,29.85
2018-02-13T00:46:12.187Z,33.80
2018-02-13T00:48:40.715Z,32.67
2018-02-13T00:51:08.480Z,33.47
2018-02-13T00:53:36.296Z,35.38
2018-02-13T00:56:04.820Z,37.72
2018-02-13T00:58:32.582Z,35.35
2018-02-13T01:01:00.391Z,49.63
2018-02-13T01:03:28.148Z,43.60
2018-02-13T01:05:55.908Z,42.80
2018-02-13T01:08:23.730Z,34.58
2018-02-13T01:10:51.495Z,33.20
2018-02-13T01:13:19.252Z,37.75
2018-02-13T01:15:47.844Z,39.60
2018-02-13T01:18:15.612Z,37.25
2018-02-13T01:20:43.378Z,35.83
2018-02-13T01:23:11.203Z,36.22
2018-02-13T01:25:38.960Z,32.65
2018-02-13T01:28:06.715Z,31.70
2018-02-13T01:30:34.538Z,34.50
2018-02-13T01:33:02.303Z,34.85
2018-02-13T01:35:30.055Z,37.97
2018-02-13T01:37:57.867Z,28.10
2018-02-13T01:40:25.879Z,35.25
2018-02-13T01:42:53.647Z,30.30
2018-02-13T01:45:21.473Z,37.53
2018-02-13T01:47:49.228Z,33.75
2018-02-13T01:50:25.938Z,34.60
2018-02-13T01:52:53.705Z,34.58
2018-02-13T01:55:21.461Z,29.90
2018-02-13T01:57:49.279Z,34.28
2018-02-13T02:00:17.057Z,25.85
2018-02-13T02:02:44.843Z,32.85
2018-02-13T02:05:12.660Z,30.95
2018-02-13T02:07:40.419Z,31.10
2018-02-13T02:10:08.184Z,39.00
2018-02-13T02:12:36.003Z,39.72
2018-02-13T02:15:03.771Z,36.00
2018-02-13T02:17:31.536Z,36.33
2018-02-13T02:19:59.369Z,34.60
2018-02-13T02:22:27.148Z,33.97
2018-02-13T02:24:54.962Z,36.58
2018-02-13T02:27:23.080Z,33.58
2018-02-13T02:29:50.844Z,34.05
2018-02-13T02:32:18.624Z,27.50
2018-02-13T02:34:46.439Z,36.50
2018-02-13T02:37:14.202Z,38.40
2018-02-13T02:39:41.986Z,32.15
2018-02-13T02:42:09.804Z,43.03
2018-02-13T02:44:37.563Z,38.15
2018-02-13T02:47:05.324Z,37.58
2018-02-13T02:49:33.143Z,40.22
2018-02-13T02:52:00.920Z,28.45
2018-02-13T02:54:28.683Z,37.70
2018-02-13T02:56:56.492Z,37.33
2018-02-13T02:59:24.275Z,33.38
2018-02-13T03:01:52.038Z,32.50
2018-02-13T03:04:20.028Z,30.77
2018-02-13T03:06:47.797Z,36.75
2018-02-13T03:09:15.556Z,40.20
2018-02-13T03:11:43.374Z,33.33
2018-02-13T03:14:11.130Z,40.38
2018-02-13T03:16:38.888Z,41.33
2018-02-13T03:19:06.714Z,37.00
2018-02-13T03:21:34.467Z,41.17
2018-02-13T03:24:02.232Z,38.65
2018-02-13T03:26:30.054Z,42.08
2018-02-13T03:28:57.821Z,32.95
2018-02-13T03:31:25.583Z,41.30
2018-02-13T03:33:53.396Z,38.28
2018-02-13T03:36:21.937Z,41.47
2018-02-13T03:38:49.707Z,34.35
2018-02-13T03:41:17.548Z,48.28
2018-02-13T03:43:45.311Z,42.72
2018-02-13T03:46:13.079Z,41.30
2018-02-13T03:48:40.892Z,38.47
2018-02-13T03:51:09.416Z,36.63
2018-02-13T03:53:37.180Z,37.47
2018-02-13T03:56:05.773Z,42.17
2018-02-13T03:58:33.540Z,44.05
2018-02-13T04:01:01.304Z,40.80
2018-02-13T04:03:29.272Z,34.15
2018-02-13T04:05:57.030Z,38.47
2018-02-13T04:08:24.790Z,34.75
2018-02-13T04:10:52.643Z,37.28
2018-02-13T04:13:20.403Z,41.47
2018-02-13T04:15:48.179Z,42.53
2018-02-13T04:18:16.010Z,42.70
2018-02-13T04:20:43.772Z,36.17
2018-02-13T04:23:11.540Z,40.80
2018-02-13T04:25:39.359Z,37.00
2018-02-13T04:28:07.883Z,42.00
2018-02-13T04:30:35.719Z,37.30
2018-02-13T04:33:03.547Z,34.55
2018-02-13T04:35:31.311Z,40.53
2018-02-13T04:37:59.110Z,46.60
2018-02-13T04:40:26.933Z,41.28
2018-02-13T04:42:54.694Z,36.72
2018-02-13T04:45:22.459Z,41.47
2018-02-13T04:47:50.280Z,43.87
2018-02-13T04:50:18.043Z,40.92
2018-02-13T04:52:45.815Z,43.75
2018-02-13T04:55:13.628Z,45.72
2018-02-13T04:57:42.159Z,51.80
2018-02-13T05:00:09.936Z,50.28
2018-02-13T05:02:37.756Z,47.42
2018-02-13T05:05:05.517Z,49.17
2018-02-13T05:07:33.294Z,45.20
2018-02-13T05:10:01.121Z,44.67
2018-02-13T05:12:29.658Z,43.60
2018-02-13T05:14:57.420Z,50.47
2018-02-13T05:17:25.239Z,47.70
2018-02-13T05:19:53.001Z,55.97
2018-02-13T05:22:20.763Z,43.58
2018-02-13T05:24:48.584Z,49.50
2018-02-13T05:27:16.342Z,51.83
2018-02-13T05:29:44.130Z,48.28
2018-02-13T05:32:11.962Z,53.42
2018-02-13T05:34:39.772Z,51.15
2018-02-13T05:37:07.534Z,54.53
2018-02-13T05:39:35.354Z,45.50
2018-02-13T05:42:03.114Z,55.90
2018-02-13T05:44:30.884Z,54.03
2018-02-13T05:46:58.698Z,50.38
2018-02-13T05:49:26.455Z,57.17
2018-02-13T05:51:54.220Z,52.75
2018-02-13T05:54:22.048Z,56.85
2018-02-13T05:56:50.576Z,47.08
2018-02-13T05:59:18.339Z,52.42
2018-02-13T06:01:46.162Z,46.58
2018-02-13T06:04:14.692Z,57.75
2018-02-13T06:06:42.483Z,46.10
2018-02-13T06:09:10.300Z,43.53
2018-02-13T06:11:38.060Z,58.08
2018-02-13T06:14:05.823Z,56.08
2018-02-13T06:16:33.652Z,54.72
2018-02-13T06:19:02.176Z,49.40
2018-02-13T06:21:29.940Z,67.47
2018-02-13T06:23:57.760Z,48.53
2018-02-13T06:26:26.299Z,60.72
2018-02-13T06:28:54.059Z,49.90
2018-02-13T06:31:21.889Z,52.10
2018-02-13T06:33:49.677Z,48.83
2018-02-13T06:36:17.455Z,60.35
2018-02-13T06:38:45.281Z,50.15
2018-02-13T06:41:13.042Z,46.15
2018-02-13T06:43:40.811Z,49.55
2018-02-13T06:46:08.635Z,53.15
2018-02-13T06:48:37.166Z,50.17
2018-02-13T06:51:04.928Z,54.85
2018-02-13T06:53:32.739Z,55.33
2018-02-13T06:56:01.260Z,48.30
2018-02-13T06:58:29.023Z,49.50
2018-02-13T07:00:56.844Z,51.33
2018-02-13T07:03:25.377Z,56.08
2018-02-13T07:05:53.909Z,54.60
2018-02-13T07:08:22.486Z,45.75
2018-02-13T07:10:51.010Z,53.85
2018-02-13T07:13:18.770Z,47.25
2018-02-13T07:15:46.588Z,61.17
2018-02-13T07:18:15.112Z,50.22
2018-02-13T07:20:42.879Z,50.45
2018-02-13T07:23:10.708Z,48.72
2018-02-13T07:25:38.463Z,51.58
2018-02-13T07:28:06.250Z,48.00
2018-02-13T07:30:34.076Z,49.50
2018-02-13T07:33:02.609Z,52.97
2018-02-13T07:35:30.393Z,51.00
2018-02-13T07:37:58.259Z,44.88
2018-02-13T07:40:26.024Z,47.72
2018-02-13T07:42:53.788Z,42.90
2018-02-13T07:45:21.604Z,48.47
2018-02-13T07:47:49.364Z,47.45
2018-02-13T07:50:17.124Z,47.22
2018-02-13T07:52:44.948Z,49.22
2018-02-13T07:55:12.700Z,36.50
2018-02-13T07:57:40.455Z,44.50
2018-02-13T08:00:08.274Z,50.20
2018-02-13T08:02:36.031Z,44.58
2018-02-13T08:05:03.824Z,42.65
2018-02-13T08:07:31.632Z,43.42
2018-02-13T08:10:00.159Z,39.50
2018-02-13T08:12:27.923Z,40.08
2018-02-13T08:14:55.748Z,43.13
2018-02-13T08:17:23.534Z,40.45
2018-02-13T08:19:51.319Z,42.38
2018-02-13T08:22:19.127Z,42.15
2018-02-13T08:24:47.647Z,44.88
2018-02-13T08:27:15.403Z,40.40
2018-02-13T08:29:43.211Z,39.53
2018-02-13T08:32:10.964Z,41.25
2018-02-13T08:34:38.729Z,41.35
2018-02-13T08:37:06.549Z,39.83
2018-02-13T08:39:34.316Z,32.10
2018-02-13T08:42:02.076Z,38.60
2018-02-13T08:44:29.891Z,36.25
2018-02-13T08:46:58.412Z,34.90
2018-02-13T08:49:26.167Z,32.80
2018-02-13T08:51:54.003Z,42.80
2018-02-13T08:54:22.526Z,34.80
2018-02-13T08:56:50.283Z,39.60
2018-02-13T08:59:18.217Z,34.92
2018-02-13T09:01:45.926Z,32.00
2018-02-13T09:04:13.692Z,37.10
2018-02-13T09:06:41.507Z,35.55
2018-02-13T09:09:09.263Z,34.70
2018-02-13T09:11:37.792Z,42.75
2018-02-13T09:14:05.620Z,35.95
2018-02-13T09:16:33.381Z,34.05
2018-02-13T09:19:01.140Z,42.40
2018-02-13T09:21:28.950Z,34.95
2018-02-13T09:23:56.708Z,40.72
2018-02-13T09:26:24.463Z,36.58
2018-02-13T09:28:52.268Z,36.63
2018-02-13T09:31:20.796Z,35.53
2018-02-13T09:33:48.558Z,37.10
2018-02-13T09:36:17.201Z,39.53
2018-02-13T09:38:45.727Z,44.33
2018-02-13T09:41:13.484Z,41.33
2018-02-13T09:43:41.296Z,42.33
2018-02-13T09:46:09.820Z,39.83
2018-02-13T09:48:37.586Z,37.25
2018-02-13T09:51:05.425Z,45.97
2018-02-13T09:53:33.180Z,40.28
2018-02-13T09:56:00.931Z,37.35
2018-02-13T09:58:29.512Z,35.97
2018-02-13T10:00:58.049Z,41.03
2018-02-13T10:03:25.810Z,34.00
2018-02-13T10:05:53.635Z,32.17
2018-02-13T10:08:21.391Z,33.17
2018-02-13T10:10:49.204Z,31.85
2018-02-13T10:13:17.015Z,29.83
2018-02-13T10:15:44.783Z,25.17
2018-02-13T10:18:12.552Z,21.10
2018-02-13T10:20:40.409Z,22.48
2018-02-13T10:23:08.183Z,18.77
2018-02-13T10:25:35.939Z,25.33
2018-02-13T10:28:03.760Z,31.67
2018-02-13T10:30:31.519Z,18.83
2018-02-13T10:32:59.336Z,18.37
2018-02-13T10:35:27.152Z,20.08
2018-02-13T10:37:54.920Z,17.15
2018-02-13T10:40:23.439Z,20.45
2018-02-13T10:42:51.259Z,16.95
2018-02-13T10:45:19.785Z,15.52
2018-02-13T10:47:47.539Z,18.98
2018-02-13T10:50:15.352Z,17.42
2018-02-13T10:52:43.108Z,21.50
2018-02-13T10:55:10.869Z,15.93
2018-02-13T10:57:38.676Z,22.17
2018-02-13T11:00:06.443Z,20.48
2018-02-13T11:02:34.208Z,22.13
2018-02-13T11:05:02.079Z,16.83
2018-02-13T11:07:29.836Z,17.02
2018-02-13T11:09:57.600Z,19.85
2018-02-13T11:12:25.416Z,18.20
2018-02-13T11:14:53.204Z,26.10
2018-02-13T11:17:21.007Z,20.23
2018-02-13T11:19:48.838Z,21.12
2018-02-13T11:22:16.605Z,17.92
2018-02-13T11:24:44.363Z,31.40
2018-02-13T11:27:12.182Z,25.30
2018-02-13T11:29:39.956Z,22.85
2018-02-13T11:32:07.711Z,17.77
2018-02-13T11:34:35.544Z,18.98
2018-02-13T11:37:03.334Z,22.10
2018-02-13T11:39:31.098Z,22.40
2018-02-13T11:41:58.915Z,20.58
2018-02-13T11:44:26.680Z,17.50
2018-02-13T11:46:54.445Z,15.43
2018-02-13T11:49:22.278Z,19.33
2018-02-13T11:51:50.064Z,19.95
2018-02-13T11:54:17.841Z,17.60
2018-02-13T11:56:45.677Z,19.52
2018-02-13T11:59:13.436Z,19.12
2018-02-13T12:01:41.233Z,20.27
2018-02-13T12:04:09.115Z,23.42
2018-02-13T12:06:36.887Z,20.10
2018-02-13T12:09:04.733Z,21.48
2018-02-13T12:11:32.564Z,24.77
2018-02-13T12:14:00.340Z,31.55
2018-02-13T12:16:28.138Z,16.05
2018-02-13T12:18:55.998Z,19.25
2018-02-13T12:21:23.762Z,15.30
2018-02-13T12:23:51.528Z,22.98
2018-02-13T12:26:19.349Z,24.92
2018-02-13T12:28:47.132Z,21.00
2018-02-13T12:31:14.884Z,21.67
2018-02-13T12:33:42.696Z,17.12
2018-02-13T12:36:11.233Z,16.17
2018-02-13T12:38:39.043Z,16.40
2018-02-13T12:41:07.650Z,12.37
2018-02-13T12:43:35.420Z,14.85
2018-02-13T12:46:03.185Z,16.40
2018-02-13T12:48:31.019Z,16.65
2018-02-13T12:50:58.787Z,19.55
2018-02-13T12:53:26.551Z,15.82
2018-02-13T12:55:54.373Z,12.05
2018-02-13T12:58:22.142Z,18.55
2018-02-13T13:00:50.800Z,18.58
2018-02-13T13:03:18.683Z,12.55
2018-02-13T13:05:46.465Z,14.35
2018-02-13T13:08:15.063Z,16.62
2018-02-13T13:10:42.932Z,18.02
2018-02-13T13:13:10.704Z,16.75
2018-02-13T13:15:38.514Z,15.60
2018-02-13T13:18:06.330Z,18.15
2018-02-13T13:20:34.124Z,14.30
2018-02-13T13:23:01.896Z,12.88
2018-02-13T13:25:29.708Z,13.15
2018-02-13T13:27:57.479Z,15.38
2018-02-13T13:30:25.237Z,10.98
2018-02-13T13:32:53.051Z,13.23
2018-02-13T13:35:21.819Z,16.98
2018-02-13T13:37:49.587Z,10.65
2018-02-13T13:40:17.400Z,13.60
2018-02-13T13:42:45.173Z,8.10
2018-02-13T13:45:12.980Z,13.43
2018-02-13T13:47:40.800Z,10.70
2018-02-13T13:50:08.590Z,10.77
2018-02-13T13:52:36.353Z,7.07
2018-02-13T13:55:04.171Z,14.10
2018-02-13T13:57:31.937Z,8.07
2018-02-13T13:59:59.700Z,6.62
2018-02-13T14:02:27.547Z,17.15
2018-02-13T14:04:56.073Z,13.45
2018-02-13T14:07:23.829Z,12.07
2018-02-13T14:09:52.548Z,11.75
2018-02-13T14:12:20.304Z,8.73
2018-02-13T14:14:48.068Z,9.27
2018-02-13T14:17:16.675Z,13.40
2018-02-13T14:19:45.214Z,13.68
2018-02-13T14:22:12.992Z,14.43
2018-02-13T14:24:40.812Z,13.75
2018-02-13T14:27:08.592Z,18.75
2018-02-13T14:29:37.143Z,19.87
2018-02-13T14:32:04.968Z,15.43
2018-02-13T14:34:32.732Z,19.17
2018-02-13T14:37:01.304Z,17.20
2018-02-13T14:39:29.120Z,14.93
2018-02-13T14:41:56.886Z,15.18
2018-02-13T14:44:24.668Z,13.73
2018-02-13T14:46:53.248Z,14.13
2018-02-13T14:49:21.028Z,14.63
2018-02-13T14:51:48.790Z,13.98
2018-02-13T14:54:16.612Z,15.80
2018-02-13T14:56:44.375Z,21.12
2018-02-13T14:59:12.135Z,16.87
2018-02-13T15:01:39.949Z,14.60
2018-02-13T15:04:08.477Z,21.55
2018-02-13T15:06:36.261Z,16.73
2018-02-13T15:09:04.111Z,17.40
2018-02-13T15:11:31.888Z,16.35
2018-02-13T15:13:59.673Z,20.62
2018-02-13T15:16:27.544Z,16.05
2018-02-13T15:18:55.353Z,17.75
2018-02-13T15:21:23.115Z,20.45
2018-02-13T15:23:51.220Z,14.10
2018-02-13T15:26:18.980Z,15.00
2018-02-13T15:28:46.777Z,19.92
2018-02-13T15:31:15.372Z,13.35
2018-02-13T15:33:43.171Z,13.40
2018-02-13T15:36:10.952Z,16.00
2018-02-13T15:38:38.771Z,16.20
2018-02-13T15:41:06.519Z,12.77
2018-02-13T15:43:34.282Z,15.82
2018-02-13T15:46:02.104Z,16.92
2018-02-13T15:48:29.941Z,16.20
2018-02-13T15:50:57.690Z,12.07
2018-02-13T15:53:25.512Z,12.90
2018-02-13T15:55:54.049Z,13.57
2018-02-13T15:58:21.848Z,15.50
2018-02-13T16:00:49.663Z,14.07
2018-02-13T16:03:17.440Z,16.67
2018-02-13T16:05:45.208Z,16.33
2018-02-13T16:08:13.027Z,12.75
2018-02-13T16:10:40.786Z,12.93
2018-02-13T16:13:08.564Z,15.63
2018-02-13T16:15:36.395Z,17.10
2018-02-13T16:18:04.932Z,15.82
2018-02-13T16:20:32.712Z,17.17
2018-02-13T16:23:00.548Z,14.85
2018-02-13T16:25:28.310Z,18.48
2018-02-13T16:27:56.072Z,19.73
2018-02-13T16:30:23.892Z,20.75
2018-02-13T16:32:52.427Z,26.00
2018-02-13T16:35:20.193Z,22.95
2018-02-13T16:37:48.016Z,18.77
2018-02-13T16:40:15.788Z,16.60
2018-02-13T16:42:43.603Z,22.90
2018-02-13T16:45:11.438Z,21.17
2018-02-13T16:47:39.210Z,24.48
2018-02-13T16:50:06.967Z,19.35
2018-02-13T16:52:34.777Z,23.17
2018-02-13T16:55:03.315Z,21.65
2018-02-13T16:57:31.086Z,20.30
2018-02-13T16:59:58.916Z,26.85
2018-02-13T17:02:26.689Z,20.37
2018-02-13T17:04:54.444Z,24.50
2018-02-13T17:07:22.265Z,14.77
2018-02-13T17:09:50.800Z,17.60
2018-02-13T17:12:19.393Z,23.83
2018-02-13T17:14:47.208Z,18.48
2018-02-13T17:17:14.971Z,20.62
2018-02-13T17:19:42.743Z,22.33
2018-02-13T17:22:10.569Z,19.52
2018-02-13T17:24:39.100Z,19.27
2018-02-13T17:27:06.876Z,17.92
2018-02-13T17:29:34.724Z,18.92
2018-02-13T17:32:02.496Z,18.75
2018-02-13T17:34:30.260Z,17.87
2018-02-13T17:36:58.096Z,13.98
2018-02-13T17:39:25.856Z,18.50
2018-02-13T17:41:53.624Z,20.83
2018-02-13T17:44:21.444Z,24.20
2018-02-13T17:46:50.001Z,27.75
2018-02-13T17:49:17.771Z,27.50
2018-02-13T17:51:45.579Z,28.50
2018-02-13T17:54:13.360Z,25.80
2018-02-13T17:56:41.172Z,23.30
2018-02-13T17:59:09.796Z,32.30
2018-02-13T18:01:37.567Z,31.83
2018-02-13T18:04:05.331Z,34.25
2018-02-13T18:06:33.251Z,31.70
2018-02-13T18:09:01.845Z,29.73
2018-02-13T18:11:30.510Z,26.83
2018-02-13T18:13:59.099Z,33.60
2018-02-13T18:16:28.207Z,26.15
2018-02-13T18:18:56.042Z,40.33
2018-02-13T18:21:23.881Z,32.63
2018-02-13T18:23:51.644Z,30.27
2018-02-13T18:26:19.403Z,34.45
2018-02-13T18:28:47.227Z,31.92
2018-02-13T18:31:15.137Z,36.78
2018-02-13T18:33:43.171Z,37.78
2018-02-13T18:36:11.008Z,27.27
2018-02-13T18:38:39.542Z,34.20
2018-02-13T18:41:07.308Z,25.58
2018-02-13T18:43:35.124Z,30.35
2018-02-13T18:46:02.896Z,30.35
2018-02-13T18:48:30.674Z,32.92
2018-02-13T18:50:58.564Z,33.05
2018-02-13T18:53:26.333Z,26.75
2018-02-13T18:55:54.882Z,31.55
2018-02-13T18:58:22.714Z,23.73
2018-02-13T19:00:50.477Z,36.85
2018-02-13T19:03:18.241Z,38.67
2018-02-13T19:05:46.074Z,29.55
2018-02-13T19:08:13.915Z,43.55
2018-02-13T19:10:41.691Z,38.35
2018-02-13T19:13:09.536Z,41.25
2018-02-13T19:15:37.303Z,46.50
2018-02-13T19:18:05.072Z,43.40
2018-02-13T19:20:32.897Z,49.60
2018-02-13T19:23:00.710Z,47.13
2018-02-13T19:25:28.503Z,37.58
2018-02-13T19:27:56.322Z,39.17
2018-02-13T19:30:24.532Z,49.00
2018-02-13T19:32:52.299Z,49.78
2018-02-13T19:35:20.116Z,43.13
2018-02-13T19:37:47.883Z,37.50
2018-02-13T19:40:15.659Z,45.90
2018-02-13T19:42:43.731Z,46.80
2018-02-13T19:45:12.269Z,50.53
2018-02-13T19:47:40.035Z,46.10
2018-02-13T19:50:07.863Z,43.67
2018-02-13T19:52:35.639Z,39.30
2018-02-13T19:55:03.403Z,36.92
2018-02-13T19:57:31.252Z,43.13
2018-02-13T19:59:59.016Z,47.67
2018-02-13T20:02:26.795Z,44.25
2018-02-13T20:04:54.615Z,50.97
2018-02-13T20:07:23.390Z,52.30
